createdAt,value
2023-04-12T00:00:40.129Z,95472.30
2023-04-12T00:03:21.494Z,95469.83
2023-04-12T00:05:56.093Z,95471.85
2023-04-12T00:08:34.020Z,95465.27
2023-04-12T00:11:04.348Z,95459.15
2023-04-12T00:13:34.152Z,95459.19
2023-04-12T00:16:04.583Z,95452.13
2023-04-12T00:18:34.576Z,95448.34
2023-04-12T00:21:04.626Z,95443.61
2023-04-12T00:23:34.384Z,95433.83
2023-04-12T00:26:04.784Z,95437.08
2023-04-12T00:28:34.608Z,95434.05
2023-04-12T00:31:06.522Z,95424.33
2023-04-12T00:33:38.434Z,95425.45
2023-04-12T00:36:08.404Z,95421.25
2023-04-12T00:38:38.404Z,95416.30
2023-04-12T00:41:08.517Z,95415.98
2023-04-12T00:43:38.480Z,95413.22
2023-04-12T00:46:08.065Z,95415.94
2023-04-12T00:48:39.106Z,95412.30
2023-04-12T00:51:09.758Z,95412.91
2023-04-12T00:53:40.359Z,95412.43
2023-04-12T00:56:12.337Z,95403.40
2023-04-12T00:58:42.281Z,95402.36
2023-04-12T01:01:12.338Z,95396.38
2023-04-12T01:03:44.953Z,95393.89
2023-04-12T01:06:22.389Z,95389.06
2023-04-12T01:09:03.149Z,95390.08
2023-04-12T01:11:36.610Z,95385.81
2023-04-12T01:14:18.701Z,95382.89
2023-04-12T01:16:54.084Z,95375.82
2023-04-12T01:19:45.692Z,95374.09
2023-04-12T01:22:25.127Z,95371.46
2023-04-12T01:25:24.764Z,95373.63
2023-04-12T01:28:05.693Z,95365.06
2023-04-12T01:30:37.163Z,95365.71
2023-04-12T01:33:07.822Z,95366.34
2023-04-12T01:35:41.401Z,95358.80
2023-04-12T01:38:11.369Z,95357.59
2023-04-12T01:40:43.254Z,95356.18
2023-04-12T01:43:13.750Z,95352.17
2023-04-12T01:45:43.614Z,95347.57
2023-04-12T01:48:13.690Z,95348.79
2023-04-12T01:50:46.800Z,95347.88
2023-04-12T01:53:21.964Z,95348.61
2023-04-12T01:55:53.114Z,95343.89
2023-04-12T01:58:22.731Z,95342.61
2023-04-12T02:00:53.365Z,95338.52
2023-04-12T02:03:23.969Z,95337.92
2023-04-12T02:05:54.044Z,95331.55
2023-04-12T02:08:23.927Z,95331.91
2023-04-12T02:10:56.446Z,95329.52
2023-04-12T02:13:27.241Z,95332.35
2023-04-12T02:15:59.695Z,95330.89
2023-04-12T02:18:30.771Z,95323.30
2023-04-12T02:21:01.170Z,95319.09
2023-04-12T02:23:31.135Z,95320.38
2023-04-12T02:26:01.607Z,95315.69
2023-04-12T02:28:31.826Z,95321.14
2023-04-12T02:31:02.053Z,95319.42
2023-04-12T02:33:33.763Z,95322.09
2023-04-12T02:36:03.895Z,95320.10
2023-04-12T02:38:33.761Z,95314.59
2023-04-12T02:41:04.449Z,95319.90
2023-04-12T02:43:35.396Z,95321.71
2023-04-12T02:46:08.013Z,95320.50
2023-04-12T02:48:44.447Z,95316.54
2023-04-12T02:51:14.251Z,95320.56
2023-04-12T02:53:44.260Z,95316.87
2023-04-12T02:56:19.641Z,95312.17
2023-04-12T02:58:52.087Z,95311.02
2023-04-12T03:01:36.356Z,95312.67
2023-04-12T03:04:30.864Z,95317.79
2023-04-12T03:07:01.777Z,95315.20
2023-04-12T03:09:39.109Z,95317.51
2023-04-12T03:12:09.368Z,95320.31
2023-04-12T03:14:42.378Z,95311.23
2023-04-12T03:17:12.784Z,95311.04
2023-04-12T03:19:43.573Z,95309.52
2023-04-12T03:22:14.909Z,95307.99
2023-04-12T03:24:47.522Z,95314.70
2023-04-12T03:27:18.653Z,95315.95
2023-04-12T03:29:48.298Z,95313.52
2023-04-12T03:32:19.445Z,95315.13
2023-04-12T03:34:49.181Z,95317.41
2023-04-12T03:37:18.958Z,95325.28
2023-04-12T03:39:48.952Z,95322.60
2023-04-12T03:42:33.051Z,95323.61
2023-04-12T03:45:12.759Z,95326.29
2023-04-12T03:47:45.209Z,95322.65
2023-04-12T03:50:15.527Z,95324.64
2023-04-12T03:52:49.397Z,95328.59
2023-04-12T03:55:18.947Z,95325.92
2023-04-12T03:57:49.278Z,95328.28
2023-04-12T04:00:19.195Z,95327.66
2023-04-12T04:03:04.396Z,95329.92
2023-04-12T04:05:41.735Z,95333.02
2023-04-12T04:08:11.791Z,95335.80
2023-04-12T04:10:53.403Z,95336.26
2023-04-12T04:13:25.680Z,95333.86
2023-04-12T04:16:04.815Z,95334.47
2023-04-12T04:18:36.390Z,95333.16
2023-04-12T04:21:09.409Z,95334.90
2023-04-12T04:23:45.886Z,95337.73
2023-04-12T04:26:17.519Z,95338.94
2023-04-12T04:29:04.174Z,95342.46
2023-04-12T04:31:38.587Z,95344.71
2023-04-12T04:34:10.523Z,95341.91
2023-04-12T04:36:44.506Z,95346.88
2023-04-12T04:39:14.858Z,95344.98
2023-04-12T04:41:47.118Z,95348.13
2023-04-12T04:44:26.289Z,95350.18
2023-04-12T04:47:01.281Z,95351.00
2023-04-12T04:49:31.093Z,95351.44
2023-04-12T04:52:09.030Z,95355.00
2023-04-12T04:54:40.522Z,95358.18
2023-04-12T04:57:12.063Z,95360.73
2023-04-12T04:59:42.731Z,95362.52
2023-04-12T05:02:18.457Z,95364.16
2023-04-12T05:04:48.100Z,95362.84
2023-04-12T05:07:19.012Z,95364.64
2023-04-12T05:09:50.624Z,95367.70
2023-04-12T05:12:21.271Z,95367.86
2023-04-12T05:15:04.813Z,95367.95
2023-04-12T05:17:42.284Z,95367.07
2023-04-12T05:20:13.704Z,95376.07
2023-04-12T05:22:43.538Z,95373.63
2023-04-12T05:25:14.274Z,95379.43
2023-04-12T05:27:51.375Z,95375.86
2023-04-12T05:30:22.072Z,95378.25
2023-04-12T05:32:51.876Z,95376.55
2023-04-12T05:35:21.898Z,95380.52
2023-04-12T05:37:52.795Z,95387.78
2023-04-12T05:40:22.825Z,95384.89
2023-04-12T05:42:53.199Z,95389.24
2023-04-12T05:45:22.882Z,95387.33
2023-04-12T05:47:52.717Z,95390.94
2023-04-12T05:50:22.398Z,95389.45
2023-04-12T05:52:52.438Z,95385.66
2023-04-12T05:55:26.307Z,95386.96
2023-04-12T05:57:55.814Z,95383.02
2023-04-12T06:00:25.333Z,95382.39
2023-04-12T06:02:55.442Z,95377.05
2023-04-12T06:05:25.295Z,95367.98
2023-04-12T06:07:56.060Z,95374.18
2023-04-12T06:10:25.495Z,95373.48
2023-04-12T06:12:56.033Z,95369.91
2023-04-12T06:15:25.704Z,95371.39
2023-04-12T06:18:00.107Z,95376.38
2023-04-12T06:20:29.571Z,95376.05
2023-04-12T06:22:59.218Z,95371.36
2023-04-12T06:25:28.849Z,95370.96
2023-04-12T06:27:59.852Z,95375.45
2023-04-12T06:30:29.681Z,95371.24
2023-04-12T06:32:59.674Z,95374.65
2023-04-12T06:35:29.346Z,95374.15
2023-04-12T06:37:58.065Z,95374.03
2023-04-12T06:40:27.601Z,95371.45
2023-04-12T06:42:57.360Z,95368.67
2023-04-12T06:45:28.730Z,95362.43
2023-04-12T06:47:58.131Z,95361.49
2023-04-12T06:50:27.813Z,95361.92
2023-04-12T06:52:57.159Z,95368.11
2023-04-12T06:55:29.490Z,95359.83
2023-04-12T06:57:59.115Z,95364.46
2023-04-12T07:00:28.923Z,95367.30
2023-04-12T07:02:58.469Z,95368.77
2023-04-12T07:05:28.125Z,95357.81
2023-04-12T07:07:57.866Z,95358.31
2023-04-12T07:10:27.371Z,95354.42
2023-04-12T07:12:58.620Z,95360.44
2023-04-12T07:15:28.148Z,95358.11
2023-04-12T07:17:57.613Z,95358.20
2023-04-12T07:20:27.700Z,95359.05
2023-04-12T07:22:57.244Z,95360.98
2023-04-12T07:25:26.629Z,95353.77
2023-04-12T07:27:56.293Z,95350.28
2023-04-12T07:30:26.648Z,95349.64
2023-04-12T07:33:05.228Z,95357.02
2023-04-12T07:35:43.350Z,95360.48
2023-04-12T07:38:13.065Z,95358.38
2023-04-12T07:40:43.526Z,95359.50
2023-04-12T07:43:13.001Z,95350.73
2023-04-12T07:45:42.285Z,95345.97
2023-04-12T07:48:12.657Z,95348.55
2023-04-12T07:50:42.049Z,95343.41
2023-04-12T07:53:21.822Z,95346.98
2023-04-12T07:55:51.753Z,95346.69
2023-04-12T07:58:22.603Z,95345.08
2023-04-12T08:00:52.622Z,95348.16
2023-04-12T08:03:22.557Z,95351.58
2023-04-12T08:05:54.155Z,95347.87
2023-04-12T08:08:24.256Z,95346.52
2023-04-12T08:10:53.734Z,95350.45
2023-04-12T08:13:23.550Z,95344.06
2023-04-12T08:15:53.045Z,95345.13
2023-04-12T08:18:22.823Z,95343.02
2023-04-12T08:20:51.592Z,95338.42
2023-04-12T08:23:21.798Z,95340.09
2023-04-12T08:25:51.917Z,95343.61
2023-04-12T08:28:23.157Z,95341.62
2023-04-12T08:30:52.812Z,95347.92
2023-04-12T08:33:22.687Z,95353.46
2023-04-12T08:35:53.333Z,95354.16
2023-04-12T08:38:30.651Z,95354.59
2023-04-12T08:41:08.300Z,95357.11
2023-04-12T08:43:38.504Z,95348.91
2023-04-12T08:46:07.978Z,95355.92
2023-04-12T08:48:37.956Z,95356.04
2023-04-12T08:51:07.635Z,95361.75
2023-04-12T08:53:37.433Z,95366.95
2023-04-12T08:56:07.944Z,95363.59
2023-04-12T08:58:39.914Z,95365.39
2023-04-12T09:01:16.282Z,95369.25
2023-04-12T09:03:47.254Z,95381.47
2023-04-12T09:06:17.334Z,95385.86
2023-04-12T09:08:54.449Z,95381.75
2023-04-12T09:11:29.392Z,95384.23
2023-04-12T09:14:00.387Z,95383.30
2023-04-12T09:16:40.612Z,95385.58
2023-04-12T09:19:12.359Z,95388.63
2023-04-12T09:21:55.415Z,95388.16
2023-04-12T09:24:25.311Z,95386.77
2023-04-12T09:27:05.318Z,95381.49
2023-04-12T09:29:34.766Z,95376.50
2023-04-12T09:32:06.270Z,95376.64
2023-04-12T09:34:36.688Z,95378.48
2023-04-12T09:37:16.555Z,95367.80
2023-04-12T09:39:46.095Z,95366.51
2023-04-12T09:42:32.380Z,95368.85
2023-04-12T09:45:24.445Z,95367.48
2023-04-12T09:47:55.326Z,95359.30
2023-04-12T09:50:29.073Z,95357.39
2023-04-12T09:53:00.826Z,95359.47
2023-04-12T09:55:32.691Z,95358.68
2023-04-12T09:58:05.260Z,95358.17
2023-04-12T10:00:35.164Z,95354.40
2023-04-12T10:03:07.827Z,95359.69
2023-04-12T10:05:38.975Z,95359.11
2023-04-12T10:08:09.071Z,95351.34
2023-04-12T10:10:38.347Z,95348.70
2023-04-12T10:13:11.329Z,95344.85
2023-04-12T10:15:44.001Z,95347.13
2023-04-12T10:18:14.500Z,95350.61
2023-04-12T10:20:44.111Z,95351.23
2023-04-12T10:23:18.904Z,95351.71
2023-04-12T10:25:48.855Z,95356.86
2023-04-12T10:28:23.376Z,95358.95
2023-04-12T10:30:57.010Z,95354.93
2023-04-12T10:33:28.582Z,95348.18
2023-04-12T10:36:02.071Z,95347.03
2023-04-12T10:38:45.310Z,95348.95
2023-04-12T10:41:16.712Z,95360.42
2023-04-12T10:43:46.853Z,95356.52
2023-04-12T10:46:35.409Z,95364.90
2023-04-12T10:49:11.959Z,95366.73
2023-04-12T10:52:04.497Z,95370.80
2023-04-12T10:54:37.077Z,95371.48
2023-04-12T10:57:08.603Z,95373.81
2023-04-12T10:59:53.160Z,95372.42
2023-04-12T11:02:23.264Z,95366.52
2023-04-12T11:05:11.179Z,95364.98
2023-04-12T11:08:08.657Z,95365.43
2023-04-12T11:11:23.096Z,95370.64
2023-04-12T11:13:55.361Z,95366.02
2023-04-12T11:16:24.871Z,95361.08
2023-04-12T11:18:54.614Z,95359.10
2023-04-12T11:21:26.663Z,95363.79
2023-04-12T11:23:56.904Z,95366.70
2023-04-12T11:26:31.344Z,95368.53
2023-04-12T11:29:07.828Z,95373.86
2023-04-12T11:31:38.734Z,95373.25
2023-04-12T11:34:08.681Z,95375.54
2023-04-12T11:36:39.544Z,95371.52
2023-04-12T11:39:08.691Z,95365.73
2023-04-12T11:41:48.647Z,95364.52
2023-04-12T11:44:22.241Z,95370.14
2023-04-12T11:46:52.684Z,95368.71
2023-04-12T11:49:23.606Z,95367.33
2023-04-12T11:52:01.842Z,95376.85
2023-04-12T11:54:31.394Z,95382.96
2023-04-12T11:57:03.451Z,95388.42
2023-04-12T11:59:35.103Z,95385.98
2023-04-12T12:02:20.898Z,95389.65
2023-04-12T12:04:53.345Z,95397.19
2023-04-12T12:07:24.091Z,95401.55
2023-04-12T12:09:53.783Z,95401.36
2023-04-12T12:12:24.138Z,95410.86
2023-04-12T12:14:53.530Z,95415.92
2023-04-12T12:17:23.090Z,95419.71
2023-04-12T12:19:52.544Z,95421.80
2023-04-12T12:22:26.178Z,95423.13
2023-04-12T12:24:57.546Z,95422.30
2023-04-12T12:27:38.138Z,95421.17
2023-04-12T12:30:08.549Z,95419.36
2023-04-12T12:32:40.513Z,95418.36
2023-04-12T12:35:11.100Z,95420.52
2023-04-12T12:37:57.765Z,95424.95
2023-04-12T12:40:33.053Z,95424.38
2023-04-12T12:43:02.698Z,95422.37
2023-04-12T12:45:33.455Z,95429.42
2023-04-12T12:48:04.316Z,95432.29
2023-04-12T12:50:35.874Z,95434.82
2023-04-12T12:53:09.088Z,95432.06
2023-04-12T12:55:39.810Z,95432.56
2023-04-12T12:58:11.934Z,95437.83
2023-04-12T13:00:41.851Z,95439.34
2023-04-12T13:03:14.063Z,95440.10
2023-04-12T13:05:43.998Z,95440.80
2023-04-12T13:08:14.024Z,95441.13
2023-04-12T13:10:43.114Z,95448.09
2023-04-12T13:13:12.220Z,95449.45
2023-04-12T13:15:41.097Z,95446.16
2023-04-12T13:18:12.296Z,95447.22
2023-04-12T13:20:42.377Z,95447.13
2023-04-12T13:23:11.294Z,95452.97
2023-04-12T13:25:42.234Z,95453.23
2023-04-12T13:28:12.945Z,95451.57
2023-04-12T13:30:44.878Z,95451.89
2023-04-12T13:33:18.325Z,95449.39
2023-04-12T13:35:50.436Z,95457.09
2023-04-12T13:38:20.119Z,95457.27
2023-04-12T13:40:49.632Z,95460.48
2023-04-12T13:43:19.000Z,95459.84
2023-04-12T13:45:48.851Z,95466.45
2023-04-12T13:48:20.308Z,95465.14
2023-04-12T13:50:51.056Z,95461.91
2023-04-12T13:53:22.040Z,95460.71
2023-04-12T13:55:51.887Z,95459.41
2023-04-12T13:58:21.603Z,95462.55
2023-04-12T14:00:54.545Z,95463.35
2023-04-12T14:03:24.237Z,95468.23
2023-04-12T14:05:53.717Z,95466.20
2023-04-12T14:08:24.399Z,95467.49
2023-04-12T14:10:55.193Z,95467.05
2023-04-12T14:13:25.536Z,95464.89
2023-04-12T14:15:56.434Z,95467.66
2023-04-12T14:18:25.984Z,95469.36
2023-04-12T14:20:58.121Z,95467.67
2023-04-12T14:23:28.199Z,95467.41
2023-04-12T14:25:58.052Z,95469.66
2023-04-12T14:28:31.375Z,95467.61
2023-04-12T14:31:04.970Z,95466.94
2023-04-12T14:33:36.141Z,95470.61
2023-04-12T14:36:05.936Z,95467.00
2023-04-12T14:38:35.469Z,95464.45
2023-04-12T14:41:09.547Z,95469.83
2023-04-12T14:43:39.739Z,95470.64
2023-04-12T14:46:09.270Z,95475.92
2023-04-12T14:48:38.702Z,95471.80
2023-04-12T14:51:08.477Z,95473.56
2023-04-12T14:53:38.634Z,95471.58
2023-04-12T14:56:17.453Z,95473.45
2023-04-12T14:58:47.229Z,95470.46
2023-04-12T15:01:18.731Z,95474.88
2023-04-12T15:03:48.547Z,95477.79
2023-04-12T15:06:18.700Z,95477.15
2023-04-12T15:08:50.062Z,95474.55
2023-04-12T15:11:19.544Z,95478.40
2023-04-12T15:13:50.298Z,95485.68
2023-04-12T15:16:19.821Z,95487.88
2023-04-12T15:18:50.564Z,95490.65
2023-04-12T15:21:20.450Z,95488.00
2023-04-12T15:23:50.378Z,95487.88
2023-04-12T15:26:19.543Z,95489.11
2023-04-12T15:28:49.721Z,95487.48
2023-04-12T15:31:19.456Z,95498.52
2023-04-12T15:33:50.063Z,95495.02
2023-04-12T15:36:20.812Z,95497.31
2023-04-12T15:38:50.740Z,95500.73
2023-04-12T15:41:20.114Z,95504.07
2023-04-12T15:43:49.818Z,95506.27
2023-04-12T15:46:19.637Z,95508.02
2023-04-12T15:48:49.196Z,95507.31
2023-04-12T15:51:18.977Z,95507.56
2023-04-12T15:53:48.857Z,95508.26
2023-04-12T15:56:24.802Z,95508.33
2023-04-12T15:58:56.301Z,95514.98
2023-04-12T16:01:28.740Z,95513.31
2023-04-12T16:04:00.454Z,95515.67
2023-04-12T16:06:35.016Z,95516.89
2023-04-12T16:09:08.697Z,95519.23
2023-04-12T16:11:38.552Z,95520.34
2023-04-12T16:14:09.054Z,95521.75
2023-04-12T16:16:40.683Z,95524.11
2023-04-12T16:19:10.232Z,95525.95
2023-04-12T16:21:43.320Z,95525.81
2023-04-12T16:24:14.867Z,95523.55
2023-04-12T16:26:44.254Z,95523.63
2023-04-12T16:29:14.075Z,95524.96
2023-04-12T16:31:43.858Z,95525.57
2023-04-12T16:34:13.721Z,95523.36
2023-04-12T16:36:43.991Z,95524.84
2023-04-12T16:39:14.103Z,95521.66
2023-04-12T16:41:47.458Z,95517.63
2023-04-12T16:44:20.626Z,95517.54
2023-04-12T16:46:50.581Z,95521.84
2023-04-12T16:49:20.631Z,95516.17
2023-04-12T16:51:50.836Z,95519.98
2023-04-12T16:54:20.441Z,95518.61
2023-04-12T16:56:50.491Z,95523.87
2023-04-12T16:59:19.893Z,95525.52
2023-04-12T17:01:49.901Z,95532.59
2023-04-12T17:04:20.131Z,95533.67
2023-04-12T17:06:50.273Z,95538.33
2023-04-12T17:09:20.236Z,95538.25
2023-04-12T17:11:49.975Z,95544.52
2023-04-12T17:14:20.156Z,95543.41
2023-04-12T17:16:52.194Z,95547.03
2023-04-12T17:19:22.122Z,95547.26
2023-04-12T17:21:51.961Z,95547.67
2023-04-12T17:24:23.081Z,95546.45
2023-04-12T17:26:53.955Z,95556.72
2023-04-12T17:29:23.535Z,95558.38
2023-04-12T17:31:54.342Z,95555.98
2023-04-12T17:34:25.784Z,95565.05
2023-04-12T17:36:55.735Z,95563.83
2023-04-12T17:39:25.657Z,95563.48
2023-04-12T17:41:56.440Z,95568.45
2023-04-12T17:44:25.966Z,95567.53
2023-04-12T17:46:57.232Z,95571.45
2023-04-12T17:49:25.989Z,95579.55
2023-04-12T17:51:55.764Z,95582.39
2023-04-12T17:54:25.230Z,95587.84
2023-04-12T17:56:55.041Z,95586.16
2023-04-12T17:59:24.849Z,95587.25
2023-04-12T18:01:53.953Z,95589.80
2023-04-12T18:04:23.788Z,95587.21
2023-04-12T18:06:54.517Z,95582.45
2023-04-12T18:09:24.679Z,95583.30
2023-04-12T18:11:54.448Z,95590.89
2023-04-12T18:14:24.201Z,95587.39
2023-04-12T18:16:53.094Z,95594.45
2023-04-12T18:19:23.560Z,95588.16
2023-04-12T18:21:52.490Z,95587.32
2023-04-12T18:24:22.134Z,95587.52
2023-04-12T18:26:51.589Z,95594.69
2023-04-12T18:29:20.451Z,95596.59
2023-04-12T18:31:50.398Z,95597.80
2023-04-12T18:34:20.435Z,95598.92
2023-04-12T18:36:50.126Z,95599.81
2023-04-12T18:39:21.008Z,95602.63
2023-04-12T18:41:50.424Z,95599.12
2023-04-12T18:44:20.740Z,95597.03
2023-04-12T18:46:50.265Z,95599.84
2023-04-12T18:49:19.661Z,95599.72
2023-04-12T18:51:50.060Z,95599.44
2023-04-12T18:54:20.329Z,95593.04
2023-04-12T18:56:50.082Z,95591.71
2023-04-12T18:59:19.469Z,95587.48
2023-04-12T19:01:48.976Z,95588.16
2023-04-12T19:04:18.565Z,95590.27
2023-04-12T19:06:48.351Z,95588.86
2023-04-12T19:09:18.229Z,95590.91
2023-04-12T19:11:47.703Z,95591.70
2023-04-12T19:14:17.136Z,95592.11
2023-04-12T19:16:48.696Z,95589.45
2023-04-12T19:19:18.412Z,95586.43
2023-04-12T19:21:48.370Z,95586.25
2023-04-12T19:24:18.155Z,95588.13
2023-04-12T19:26:47.574Z,95585.74
2023-04-12T19:29:17.105Z,95581.86
2023-04-12T19:31:54.005Z,95580.52
2023-04-12T19:34:23.783Z,95582.88
2023-04-12T19:36:53.980Z,95589.80
2023-04-12T19:39:24.476Z,95591.55
2023-04-12T19:41:53.383Z,95591.42
2023-04-12T19:44:23.717Z,95588.11
2023-04-12T19:46:53.708Z,95584.42
2023-04-12T19:49:24.248Z,95586.58
2023-04-12T19:51:53.676Z,95590.20
2023-04-12T19:54:24.213Z,95588.27
2023-04-12T19:56:54.154Z,95592.26
2023-04-12T19:59:25.662Z,95592.49
2023-04-12T20:01:56.595Z,95592.73
2023-04-12T20:04:26.965Z,95590.13
2023-04-12T20:06:56.436Z,95590.87
2023-04-12T20:09:26.624Z,95589.95
2023-04-12T20:11:57.070Z,95585.23
2023-04-12T20:14:27.213Z,95585.45
2023-04-12T20:16:57.422Z,95581.45
2023-04-12T20:19:27.575Z,95579.77
2023-04-12T20:22:02.625Z,95576.79
2023-04-12T20:24:34.784Z,95578.64
2023-04-12T20:27:04.346Z,95577.70
2023-04-12T20:29:35.037Z,95575.29
2023-04-12T20:32:07.980Z,95576.46
2023-04-12T20:34:37.409Z,95574.83
2023-04-12T20:37:07.116Z,95573.00
2023-04-12T20:39:36.484Z,95572.14
2023-04-12T20:42:07.156Z,95567.80
2023-04-12T20:44:37.831Z,95570.48
2023-04-12T20:47:07.954Z,95566.55
2023-04-12T20:49:37.547Z,95568.88
2023-04-12T20:52:06.176Z,95569.01
2023-04-12T20:54:36.044Z,95566.88
2023-04-12T20:57:04.943Z,95564.11
2023-04-12T20:59:36.441Z,95558.40
2023-04-12T21:02:05.202Z,95556.46
2023-04-12T21:04:36.779Z,95556.61
2023-04-12T21:07:06.614Z,95554.71
2023-04-12T21:09:35.918Z,95560.60
2023-04-12T21:12:09.098Z,95565.52
2023-04-12T21:14:40.730Z,95562.20
2023-04-12T21:17:13.627Z,95567.25
2023-04-12T21:19:45.304Z,95564.52
2023-04-12T21:22:15.063Z,95570.39
2023-04-12T21:24:45.038Z,95569.23
2023-04-12T21:27:14.935Z,95563.25
2023-04-12T21:29:45.280Z,95566.86
2023-04-12T21:32:15.006Z,95569.70
2023-04-12T21:34:45.919Z,95569.22
2023-04-12T21:37:15.691Z,95568.98
2023-04-12T21:39:44.325Z,95570.44
2023-04-12T21:42:13.708Z,95572.41
2023-04-12T21:44:43.356Z,95571.94
2023-04-12T21:47:13.429Z,95566.56
2023-04-12T21:49:42.800Z,95568.14
2023-04-12T21:52:12.213Z,95564.89
2023-04-12T21:54:41.786Z,95564.61
2023-04-12T21:57:11.768Z,95568.52
2023-04-12T21:59:43.051Z,95565.16
2023-04-12T22:02:13.313Z,95564.27
2023-04-12T22:04:44.076Z,95570.11
2023-04-12T22:07:14.528Z,95566.12
2023-04-12T22:09:44.615Z,95569.47
2023-04-12T22:12:14.511Z,95574.08
2023-04-12T22:14:47.578Z,95576.88
2023-04-12T22:17:19.715Z,95570.38
2023-04-12T22:19:49.704Z,95565.64
2023-04-12T22:22:19.896Z,95565.81
2023-04-12T22:24:49.323Z,95565.96
2023-04-12T22:27:19.264Z,95567.55
2023-04-12T22:29:50.392Z,95569.92
2023-04-12T22:32:19.838Z,95561.83
2023-04-12T22:35:01.144Z,95560.13
2023-04-12T22:37:42.446Z,95561.30
2023-04-12T22:40:13.959Z,95560.76
2023-04-12T22:42:47.690Z,95562.96
2023-04-12T22:45:18.172Z,95563.83
2023-04-12T22:47:48.148Z,95566.70
2023-04-12T22:50:17.618Z,95569.97
2023-04-12T22:52:50.167Z,95571.27
2023-04-12T22:55:22.718Z,95562.54
2023-04-12T22:57:53.550Z,95563.23
2023-04-12T23:00:22.853Z,95559.92
2023-04-12T23:02:54.241Z,95561.82
2023-04-12T23:05:22.967Z,95562.11
2023-04-12T23:07:52.670Z,95560.41
2023-04-12T23:10:21.348Z,95563.89
2023-04-12T23:12:54.204Z,95564.41
2023-04-12T23:15:25.349Z,95562.78
2023-04-12T23:17:55.042Z,95565.67
2023-04-12T23:20:25.563Z,95559.35
2023-04-12T23:22:57.226Z,95556.27
2023-04-12T23:25:43.395Z,95558.21
2023-04-12T23:28:14.324Z,95561.63
2023-04-12T23:30:51.198Z,95558.85
2023-04-12T23:33:21.842Z,95559.56
2023-04-12T23:35:56.691Z,95564.58
2023-04-12T23:38:32.878Z,95573.67
2023-04-12T23:41:04.518Z,95570.73
2023-04-12T23:43:35.979Z,95569.52
2023-04-12T23:46:06.062Z,95567.48
2023-04-12T23:48:35.570Z,95567.79
2023-04-12T23:51:05.177Z,95567.96
2023-04-12T23:53:34.527Z,95569.25
2023-04-12T23:56:04.153Z,95568.65
2023-04-12T23:58:32.832Z,95564.46
